sensor_id;sensor_type;location;lat;lon;timestamp;pressure;altitude;pressure_sealevel;temperature;humidity
42169;BME280;27838;43.858;25.974;2023-12-22T00:01:05;99485.59;;;8.05;50.57
42169;BME280;27838;43.858;25.974;2023-12-22T00:03:32;99484.75;;;8.01;50.97
42169;BME280;27838;43.858;25.974;2023-12-22T00:05:58;99489.09;;;8.01;50.78
42169;BME280;27838;43.858;25.974;2023-12-22T00:08:25;99495.13;;;8.04;50.91
42169;BME280;27838;43.858;25.974;2023-12-22T00:10:51;99487.38;;;8.01;50.79
42169;BME280;27838;43.858;25.974;2023-12-22T00:13:18;99485.59;;;8.03;50.75
42169;BME280;27838;43.858;25.974;2023-12-22T00:15:44;99484.75;;;8.01;50.99
42169;BME280;27838;43.858;25.974;2023-12-22T00:18:11;99484.75;;;8.01;51.07
42169;BME280;27838;43.858;25.974;2023-12-22T00:20:37;99475.22;;;8.03;50.62
42169;BME280;27838;43.858;25.974;2023-12-22T00:23:04;99484.66;;;8.12;50.74
42169;BME280;27838;43.858;25.974;2023-12-22T00:25:30;99482.88;;;8.19;50.27
42169;BME280;27838;43.858;25.974;2023-12-22T00:27:57;99476.75;;;8.24;50.17
42169;BME280;27838;43.858;25.974;2023-12-22T00:30:23;99471.53;;;8.26;50.42
42169;BME280;27838;43.858;25.974;2023-12-22T00:32:50;99477.56;;;8.28;50.23
42169;BME280;27838;43.858;25.974;2023-12-22T00:35:17;99472.38;;;8.28;50.27
42169;BME280;27838;43.858;25.974;2023-12-22T00:37:43;99451.66;;;8.25;50.38
42169;BME280;27838;43.858;25.974;2023-12-22T00:40:10;99454.28;;;8.22;50.03
42169;BME280;27838;43.858;25.974;2023-12-22T00:42:37;99446.53;;;8.17;50.57
42169;BME280;27838;43.858;25.974;2023-12-22T00:45:04;99436.16;;;8.17;50.27
42169;BME280;27838;43.858;25.974;2023-12-22T00:47:31;99433.56;;;8.17;50.18
42169;BME280;27838;43.858;25.974;2023-12-22T00:50:00;99415.34;;;8.22;49.94
42169;BME280;27838;43.858;25.974;2023-12-22T00:52:27;99410.16;;;8.22;49.98
42169;BME280;27838;43.858;25.974;2023-12-22T00:54:53;99417.97;;;8.20;49.83
42169;BME280;27838;43.858;25.974;2023-12-22T00:57:20;99409.31;;;8.20;49.68
42169;BME280;27838;43.858;25.974;2023-12-22T00:59:46;99408.41;;;8.24;49.68
42169;BME280;27838;43.858;25.974;2023-12-22T01:02:17;99403.25;;;8.21;49.81
42169;BME280;27838;43.858;25.974;2023-12-22T01:04:44;99387.69;;;8.18;50.29
42169;BME280;27838;43.858;25.974;2023-12-22T01:07:11;99381.66;;;8.17;50.02
42169;BME280;27838;43.858;25.974;2023-12-22T01:09:37;99382.56;;;8.13;49.94
42169;BME280;27838;43.858;25.974;2023-12-22T01:12:04;99367.97;;;8.04;49.95
42169;BME280;27838;43.858;25.974;2023-12-22T01:14:32;99365.38;;;8.04;49.97
42169;BME280;27838;43.858;25.974;2023-12-22T01:16:59;99353.34;;;7.97;50.33
42169;BME280;27838;43.858;25.974;2023-12-22T01:19:26;99331.03;;;7.82;50.68
42169;BME280;27838;43.858;25.974;2023-12-22T01:21:52;99320.72;;;7.76;50.83
42169;BME280;27838;43.858;25.974;2023-12-22T01:24:19;99325.84;;;7.81;50.44
42169;BME280;27838;43.858;25.974;2023-12-22T01:26:45;99316.31;;;7.83;50.75
42169;BME280;27838;43.858;25.974;2023-12-22T01:29:12;99309.31;;;7.91;50.17
42169;BME280;27838;43.858;25.974;2023-12-22T01:31:38;99302.44;;;7.87;50.72
42169;BME280;27838;43.858;25.974;2023-12-22T01:34:05;99292.88;;;7.92;50.81
42169;BME280;27838;43.858;25.974;2023-12-22T01:36:31;99283.31;;;7.96;50.20
42169;BME280;27838;43.858;25.974;2023-12-22T01:39:00;99281.56;;;7.96;50.26
42169;BME280;27838;43.858;25.974;2023-12-22T01:41:26;99281.53;;;8.01;50.03
42169;BME280;27838;43.858;25.974;2023-12-22T01:43:53;99272.81;;;8.05;50.45
42169;BME280;27838;43.858;25.974;2023-12-22T01:46:20;99264.09;;;8.09;50.27
42169;BME280;27838;43.858;25.974;2023-12-22T01:48:46;99258.03;;;8.11;49.89
42169;BME280;27838;43.858;25.974;2023-12-22T01:51:13;99260.56;;;8.15;49.42
42169;BME280;27838;43.858;25.974;2023-12-22T01:53:40;99250.22;;;8.11;49.62
42169;BME280;27838;43.858;25.974;2023-12-22T01:56:07;99249.31;;;8.16;49.42
42169;BME280;27838;43.858;25.974;2023-12-22T01:58:36;99254.50;;;8.16;49.56
42169;BME280;27838;43.858;25.974;2023-12-22T02:01:04;99243.25;;;8.15;49.86
42169;BME280;27838;43.858;25.974;2023-12-22T02:03:31;99252.00;;;8.09;50.16
42169;BME280;27838;43.858;25.974;2023-12-22T02:05:58;99243.31;;;8.09;49.58
42169;BME280;27838;43.858;25.974;2023-12-22T02:08:26;99226.13;;;8.02;50.14
42169;BME280;27838;43.858;25.974;2023-12-22T02:10:54;99226.03;;;8.11;49.69
42169;BME280;27838;43.858;25.974;2023-12-22T02:13:21;99243.22;;;8.18;49.79
42169;BME280;27838;43.858;25.974;2023-12-22T02:15:48;99225.13;;;8.13;49.63
42169;BME280;27838;43.858;25.974;2023-12-22T02:18:21;99240.53;;;8.24;49.45
42169;BME280;27838;43.858;25.974;2023-12-22T02:20:52;99243.22;;;8.18;49.42
42169;BME280;27838;43.858;25.974;2023-12-22T02:23:19;99223.31;;;8.19;49.24
42169;BME280;27838;43.858;25.974;2023-12-22T02:25:45;99222.47;;;8.18;49.17
42169;BME280;27838;43.858;25.974;2023-12-22T02:28:17;99212.97;;;8.16;49.09
42169;BME280;27838;43.858;25.974;2023-12-22T02:33:20;99208.56;;;8.21;49.06
42169;BME280;27838;43.858;25.974;2023-12-22T02:35:50;99211.06;;;8.28;49.07
42169;BME280;27838;43.858;25.974;2023-12-22T02:38:19;99217.09;;;8.29;48.89
42169;BME280;27838;43.858;25.974;2023-12-22T02:40:46;99210.97;;;8.33;48.57
42169;BME280;27838;43.858;25.974;2023-12-22T02:43:13;99217.78;;;8.43;48.93
42169;BME280;27838;43.858;25.974;2023-12-22T02:45:40;99215.09;;;8.49;48.73
42169;BME280;27838;43.858;25.974;2023-12-22T02:48:07;99224.66;;;8.47;48.72
42169;BME280;27838;43.858;25.974;2023-12-22T02:50:33;99219.34;;;8.54;48.51
42169;BME280;27838;43.858;25.974;2023-12-22T02:53:00;99211.56;;;8.55;48.33
42169;BME280;27838;43.858;25.974;2023-12-22T02:55:26;99219.13;;;8.69;47.86
42169;BME280;27838;43.858;25.974;2023-12-22T02:57:53;99217.31;;;8.74;47.53
42169;BME280;27838;43.858;25.974;2023-12-22T03:00:19;99214.59;;;8.79;48.05
42169;BME280;27838;43.858;25.974;2023-12-22T03:02:46;99218.97;;;8.78;47.14
42169;BME280;27838;43.858;25.974;2023-12-22T03:05:12;99206.00;;;8.77;47.71
42169;BME280;27838;43.858;25.974;2023-12-22T03:07:39;99218.78;;;8.87;47.40
42169;BME280;27838;43.858;25.974;2023-12-22T03:10:06;99218.78;;;8.87;47.48
42169;BME280;27838;43.858;25.974;2023-12-22T03:12:32;99216.19;;;8.87;47.39
42169;BME280;27838;43.858;25.974;2023-12-22T03:14:59;99200.59;;;8.87;47.09
42169;BME280;27838;43.858;25.974;2023-12-22T03:17:25;99209.19;;;8.93;47.54
42169;BME280;27838;43.858;25.974;2023-12-22T03:19:52;99202.25;;;8.93;47.16
42169;BME280;27838;43.858;25.974;2023-12-22T03:22:18;99203.94;;;8.96;47.32
42169;BME280;27838;43.858;25.974;2023-12-22T03:24:45;99201.34;;;8.96;47.14
42169;BME280;27838;43.858;25.974;2023-12-22T03:27:11;99194.38;;;8.98;47.26
42169;BME280;27838;43.858;25.974;2023-12-22T03:29:42;99193.50;;;8.97;47.09
42169;BME280;27838;43.858;25.974;2023-12-22T03:32:08;99186.66;;;8.93;47.11
42169;BME280;27838;43.858;25.974;2023-12-22T03:34:35;99190.94;;;8.96;46.96
42169;BME280;27838;43.858;25.974;2023-12-22T03:37:01;99192.72;;;8.94;47.41
42169;BME280;27838;43.858;25.974;2023-12-22T03:39:28;99192.81;;;8.87;47.14
42169;BME280;27838;43.858;25.974;2023-12-22T03:41:54;99190.25;;;8.86;47.49
42169;BME280;27838;43.858;25.974;2023-12-22T03:44:21;99196.34;;;8.83;47.49
42169;BME280;27838;43.858;25.974;2023-12-22T03:46:47;99181.56;;;8.87;47.76
42169;BME280;27838;43.858;25.974;2023-12-22T03:49:16;99181.53;;;8.90;47.47
42169;BME280;27838;43.858;25.974;2023-12-22T03:51:44;99180.59;;;8.93;47.61
42169;BME280;27838;43.858;25.974;2023-12-22T03:54:11;99172.78;;;8.93;46.93
42169;BME280;27838;43.858;25.974;2023-12-22T03:56:37;99168.56;;;8.87;47.54
42169;BME280;27838;43.858;25.974;2023-12-22T03:59:04;99167.72;;;8.86;47.00
42169;BME280;27838;43.858;25.974;2023-12-22T04:01:30;99169.44;;;8.87;47.31
42169;BME280;27838;43.858;25.974;2023-12-22T04:03:57;99159.09;;;8.86;47.03
42169;BME280;27838;43.858;25.974;2023-12-22T04:06:24;99162.50;;;8.88;47.14
42169;BME280;27838;43.858;25.974;2023-12-22T04:08:50;99157.22;;;8.91;47.17
42169;BME280;27838;43.858;25.974;2023-12-22T04:11:17;99164.97;;;8.96;47.32
42169;BME280;27838;43.858;25.974;2023-12-22T04:13:43;99166.59;;;9.00;46.87
42169;BME280;27838;43.858;25.974;2023-12-22T04:16:10;99165.72;;;9.01;46.52
42169;BME280;27838;43.858;25.974;2023-12-22T04:18:36;99162.22;;;9.03;47.10
42169;BME280;27838;43.858;25.974;2023-12-22T04:21:03;99158.88;;;8.98;46.77
42169;BME280;27838;43.858;25.974;2023-12-22T04:23:30;99164.84;;;9.03;46.62
42169;BME280;27838;43.858;25.974;2023-12-22T04:25:56;99168.25;;;9.05;46.43
42169;BME280;27838;43.858;25.974;2023-12-22T04:28:23;99153.47;;;9.09;46.37
42169;BME280;27838;43.858;25.974;2023-12-22T04:30:49;99149.94;;;9.12;46.50
42169;BME280;27838;43.858;25.974;2023-12-22T04:33:16;99145.53;;;9.15;46.64
42169;BME280;27838;43.858;25.974;2023-12-22T04:35:43;99148.13;;;9.15;46.09
42169;BME280;27838;43.858;25.974;2023-12-22T04:38:09;99142.06;;;9.16;46.49
42169;BME280;27838;43.858;25.974;2023-12-22T04:40:36;99143.75;;;9.17;45.93
42169;BME280;27838;43.858;25.974;2023-12-22T04:43:02;99138.53;;;9.17;46.22
42169;BME280;27838;43.858;25.974;2023-12-22T04:45:29;99130.75;;;9.17;45.86
42169;BME280;27838;43.858;25.974;2023-12-22T04:47:55;99132.53;;;9.15;46.07
42169;BME280;27838;43.858;25.974;2023-12-22T04:50:22;99119.66;;;9.09;46.51
42169;BME280;27838;43.858;25.974;2023-12-22T04:52:49;99130.16;;;9.03;46.28
42169;BME280;27838;43.858;25.974;2023-12-22T04:55:15;99126.88;;;8.95;46.40
42169;BME280;27838;43.858;25.974;2023-12-22T04:57:43;99121.72;;;8.92;46.79
42169;BME280;27838;43.858;25.974;2023-12-22T05:00:11;99120.91;;;8.90;47.10
42169;BME280;27838;43.858;25.974;2023-12-22T05:02:37;99118.22;;;8.93;47.00
42169;BME280;27838;43.858;25.974;2023-12-22T05:05:04;99113.81;;;8.96;47.23
42169;BME280;27838;43.858;25.974;2023-12-22T05:07:31;99118.97;;;8.99;46.77
42169;BME280;27838;43.858;25.974;2023-12-22T05:09:57;99112.78;;;9.05;46.58
42169;BME280;27838;43.858;25.974;2023-12-22T05:12:24;99109.31;;;9.06;46.56
42169;BME280;27838;43.858;25.974;2023-12-22T05:14:49;99117.03;;;9.12;46.18
42169;BME280;27838;43.858;25.974;2023-12-22T05:17:16;99111.81;;;9.12;46.56
42169;BME280;27838;43.858;25.974;2023-12-22T05:19:42;99115.22;;;9.14;46.71
42169;BME280;27838;43.858;25.974;2023-12-22T05:22:09;99114.31;;;9.17;46.46
42169;BME280;27838;43.858;25.974;2023-12-22T05:24:37;99124.69;;;9.18;46.73
42169;BME280;27838;43.858;25.974;2023-12-22T05:27:04;99116.81;;;9.21;46.60
42169;BME280;27838;43.858;25.974;2023-12-22T05:29:30;99118.50;;;9.22;46.70
42169;BME280;27838;43.858;25.974;2023-12-22T05:31:57;99113.38;;;9.21;47.08
42169;BME280;27838;43.858;25.974;2023-12-22T05:34:24;99117.72;;;9.19;47.07
42169;BME280;27838;43.858;25.974;2023-12-22T05:36:50;99115.13;;;9.19;47.20
42169;BME280;27838;43.858;25.974;2023-12-22T05:39:17;99120.28;;;9.20;47.34
42169;BME280;27838;43.858;25.974;2023-12-22T05:41:43;99111.66;;;9.20;47.90
42169;BME280;27838;43.858;25.974;2023-12-22T05:44:10;99104.69;;;9.20;47.95
42169;BME280;27838;43.858;25.974;2023-12-22T05:46:37;99111.59;;;9.23;47.93
42169;BME280;27838;43.858;25.974;2023-12-22T05:49:04;99103.84;;;9.20;48.02
42169;BME280;27838;43.858;25.974;2023-12-22T05:51:38;99104.81;;;9.16;48.48
42169;BME280;27838;43.858;25.974;2023-12-22T05:54:07;99097.94;;;9.12;48.64
42169;BME280;27838;43.858;25.974;2023-12-22T05:56:34;99102.28;;;9.11;48.83
42169;BME280;27838;43.858;25.974;2023-12-22T05:59:00;99098.94;;;9.06;48.56
42169;BME280;27838;43.858;25.974;2023-12-22T06:01:27;99089.47;;;9.03;48.66
42169;BME280;27838;43.858;25.974;2023-12-22T06:03:53;99092.88;;;9.05;49.04
42169;BME280;27838;43.858;25.974;2023-12-22T06:06:22;99086.00;;;9.03;48.95
42169;BME280;27838;43.858;25.974;2023-12-22T06:08:48;99082.50;;;9.04;48.44
42169;BME280;27838;43.858;25.974;2023-12-22T06:11:15;99086.75;;;9.08;48.57
42169;BME280;27838;43.858;25.974;2023-12-22T06:13:42;99091.13;;;9.06;48.78
42169;BME280;27838;43.858;25.974;2023-12-22T06:16:12;99088.53;;;9.06;48.59
42169;BME280;27838;43.858;25.974;2023-12-22T06:18:40;99082.50;;;9.05;48.94
42169;BME280;27838;43.858;25.974;2023-12-22T06:21:08;99066.91;;;9.04;48.97
42169;BME280;27838;43.858;25.974;2023-12-22T06:23:36;99073.00;;;9.03;48.94
42169;BME280;27838;43.858;25.974;2023-12-22T06:26:09;99074.72;;;9.04;48.54
42169;BME280;27838;43.858;25.974;2023-12-22T06:28:36;99059.19;;;9.01;48.43
42169;BME280;27838;43.858;25.974;2023-12-22T06:31:08;99059.19;;;9.01;48.04
42169;BME280;27838;43.858;25.974;2023-12-22T06:33:34;99040.03;;;9.05;48.15
42169;BME280;27838;43.858;25.974;2023-12-22T06:36:01;99044.31;;;9.07;47.70
42169;BME280;27838;43.858;25.974;2023-12-22T06:38:27;99046.84;;;9.12;47.17
42169;BME280;27838;43.858;25.974;2023-12-22T06:40:54;99053.63;;;9.19;46.85
42169;BME280;27838;43.858;25.974;2023-12-22T06:43:21;99068.25;;;9.23;46.66
42169;BME280;27838;43.858;25.974;2023-12-22T06:45:48;99056.00;;;9.29;46.38
42169;BME280;27838;43.858;25.974;2023-12-22T06:48:14;99036.19;;;9.24;45.95
42169;BME280;27838;43.858;25.974;2023-12-22T06:50:41;99041.09;;;9.37;45.95
42169;BME280;27838;43.858;25.974;2023-12-22T06:53:09;99045.53;;;9.33;45.89
42169;BME280;27838;43.858;25.974;2023-12-22T06:55:36;99039.31;;;9.39;45.26
42169;BME280;27838;43.858;25.974;2023-12-22T06:58:03;99038.53;;;9.35;45.44
42169;BME280;27838;43.858;25.974;2023-12-22T07:00:29;99042.00;;;9.34;45.21
42169;BME280;27838;43.858;25.974;2023-12-22T07:02:56;99044.59;;;9.36;45.45
42169;BME280;27838;43.858;25.974;2023-12-22T07:07:50;99042.47;;;9.53;45.11
42169;BME280;27838;43.858;25.974;2023-12-22T07:10:16;99044.88;;;9.61;44.77
42169;BME280;27838;43.858;25.974;2023-12-22T07:12:43;99049.09;;;9.67;44.58
42169;BME280;27838;43.858;25.974;2023-12-22T07:15:09;99044.63;;;9.73;44.27
42169;BME280;27838;43.858;25.974;2023-12-22T07:17:36;99045.47;;;9.74;44.25
42169;BME280;27838;43.858;25.974;2023-12-22T07:20:03;99044.44;;;9.81;44.03
42169;BME280;27838;43.858;25.974;2023-12-22T07:22:30;99047.09;;;9.78;44.42
42169;BME280;27838;43.858;25.974;2023-12-22T07:24:56;99051.63;;;9.70;44.69
42169;BME280;27838;43.858;25.974;2023-12-22T07:27:23;99043.97;;;9.63;44.94
42169;BME280;27838;43.858;25.974;2023-12-22T07:29:49;99032.84;;;9.57;45.37
42169;BME280;27838;43.858;25.974;2023-12-22T07:32:16;99054.19;;;9.71;45.58
42169;BME280;27838;43.858;25.974;2023-12-22T07:34:43;99057.53;;;9.76;45.72
42169;BME280;27838;43.858;25.974;2023-12-22T07:37:10;99057.50;;;9.78;45.81
42169;BME280;27838;43.858;25.974;2023-12-22T07:39:36;99059.16;;;9.82;46.23
42169;BME280;27838;43.858;25.974;2023-12-22T07:42:03;99066.06;;;9.83;46.52
42169;BME280;27838;43.858;25.974;2023-12-22T07:44:29;99071.94;;;9.91;46.28
42169;BME280;27838;43.858;25.974;2023-12-22T07:46:57;99071.28;;;9.81;46.58
42169;BME280;27838;43.858;25.974;2023-12-22T07:49:24;99069.56;;;9.82;46.84
42169;BME280;27838;43.858;25.974;2023-12-22T07:51:52;99073.06;;;9.81;46.87
42169;BME280;27838;43.858;25.974;2023-12-22T07:54:19;99067.81;;;9.82;47.32
42169;BME280;27838;43.858;25.974;2023-12-22T07:56:45;99055.59;;;9.86;46.98
42169;BME280;27838;43.858;25.974;2023-12-22T07:59:12;99062.41;;;9.90;47.03
42169;BME280;27838;43.858;25.974;2023-12-22T08:01:40;99068.22;;;10.03;46.99
42169;BME280;27838;43.858;25.974;2023-12-22T08:04:06;99050.66;;;10.10;46.88
42169;BME280;27838;43.858;25.974;2023-12-22T08:06:33;99049.53;;;10.20;46.84
42169;BME280;27838;43.858;25.974;2023-12-22T08:08:59;99046.75;;;10.28;46.99
42169;BME280;27838;43.858;25.974;2023-12-22T08:11:26;99047.41;;;10.37;46.76
42169;BME280;27838;43.858;25.974;2023-12-22T08:13:53;99036.75;;;10.47;46.55
42169;BME280;27838;43.858;25.974;2023-12-22T08:16:20;99035.00;;;10.47;46.77
42169;BME280;27838;43.858;25.974;2023-12-22T08:18:46;99040.31;;;10.43;47.25
42169;BME280;27838;43.858;25.974;2023-12-22T08:21:13;99034.97;;;10.49;47.30
42169;BME280;27838;43.858;25.974;2023-12-22T08:23:42;99039.84;;;10.61;47.26
42169;BME280;27838;43.858;25.974;2023-12-22T08:26:08;99029.94;;;10.74;47.17
42169;BME280;27838;43.858;25.974;2023-12-22T08:28:35;99026.25;;;10.81;46.91
42169;BME280;27838;43.858;25.974;2023-12-22T08:31:01;99028.53;;;10.92;46.92
42169;BME280;27838;43.858;25.974;2023-12-22T08:33:28;99027.50;;;10.99;46.95
42169;BME280;27838;43.858;25.974;2023-12-22T08:35:57;99019.31;;;11.11;46.86
42169;BME280;27838;43.858;25.974;2023-12-22T08:38:23;98998.22;;;11.19;46.60
42169;BME280;27838;43.858;25.974;2023-12-22T08:40:50;98990.81;;;11.33;46.47
42169;BME280;27838;43.858;25.974;2023-12-22T08:43:16;98993.97;;;11.45;46.17
42169;BME280;27838;43.858;25.974;2023-12-22T08:45:43;98987.69;;;11.50;45.85
42169;BME280;27838;43.858;25.974;2023-12-22T08:48:09;98986.91;;;11.48;45.69
42169;BME280;27838;43.858;25.974;2023-12-22T08:50:36;98979.81;;;11.52;45.65
42169;BME280;27838;43.858;25.974;2023-12-22T08:53:03;98983.81;;;11.64;45.69
42169;BME280;27838;43.858;25.974;2023-12-22T08:55:29;98973.28;;;11.65;45.52
42169;BME280;27838;43.858;25.974;2023-12-22T08:57:56;98965.22;;;11.73;45.02
42169;BME280;27838;43.858;25.974;2023-12-22T09:00:22;98963.31;;;11.78;45.11
42169;BME280;27838;43.858;25.974;2023-12-22T09:02:49;98964.78;;;11.87;44.76
42169;BME280;27838;43.858;25.974;2023-12-22T09:05:15;98965.25;;;12.00;44.34
42169;BME280;27838;43.858;25.974;2023-12-22T09:07:43;98963.19;;;12.09;43.88
42169;BME280;27838;43.858;25.974;2023-12-22T09:10:10;98974.88;;;12.23;43.89
42169;BME280;27838;43.858;25.974;2023-12-22T09:12:37;98980.75;;;12.30;43.61
42169;BME280;27838;43.858;25.974;2023-12-22T09:15:04;98971.06;;;12.33;43.50
42169;BME280;27838;43.858;25.974;2023-12-22T09:17:31;98963.97;;;12.37;43.52
42169;BME280;27838;43.858;25.974;2023-12-22T09:19:57;98973.56;;;12.36;43.88
42169;BME280;27838;43.858;25.974;2023-12-22T09:22:24;98971.06;;;12.33;43.89
42169;BME280;27838;43.858;25.974;2023-12-22T09:24:50;98964.97;;;12.33;43.85
42169;BME280;27838;43.858;25.974;2023-12-22T09:27:17;98978.84;;;12.35;44.47
42169;BME280;27838;43.858;25.974;2023-12-22T09:29:43;98987.59;;;12.34;45.04
42169;BME280;27838;43.858;25.974;2023-12-22T09:32:10;98988.50;;;12.33;44.96
42169;BME280;27838;43.858;25.974;2023-12-22T09:34:37;98994.63;;;12.32;45.63
42169;BME280;27838;43.858;25.974;2023-12-22T09:37:04;99007.81;;;12.28;45.91
42169;BME280;27838;43.858;25.974;2023-12-22T09:39:31;99015.75;;;12.25;46.04
42169;BME280;27838;43.858;25.974;2023-12-22T09:41:58;98999.13;;;12.26;46.42
42169;BME280;27838;43.858;25.974;2023-12-22T09:44:26;99007.63;;;12.33;46.94
42169;BME280;27838;43.858;25.974;2023-12-22T09:46:57;99003.03;;;12.40;46.69
42169;BME280;27838;43.858;25.974;2023-12-22T09:49:24;99011.53;;;12.46;46.55
42169;BME280;27838;43.858;25.974;2023-12-22T09:51:52;99004.44;;;12.50;46.61
42169;BME280;27838;43.858;25.974;2023-12-22T09:54:19;99011.53;;;12.46;46.34
42169;BME280;27838;43.858;25.974;2023-12-22T09:56:46;99008.28;;;12.40;46.37
42169;BME280;27838;43.858;25.974;2023-12-22T09:59:13;99013.41;;;12.43;46.82
42169;BME280;27838;43.858;25.974;2023-12-22T10:01:44;99010.09;;;12.38;47.03
42169;BME280;27838;43.858;25.974;2023-12-22T10:04:13;99000.91;;;12.26;47.30
42169;BME280;27838;43.858;25.974;2023-12-22T10:06:41;98992.81;;;12.34;47.49
42169;BME280;27838;43.858;25.974;2023-12-22T10:09:08;99011.31;;;12.27;47.46
42169;BME280;27838;43.858;25.974;2023-12-22T10:11:37;98997.28;;;12.30;47.66
42169;BME280;27838;43.858;25.974;2023-12-22T10:14:04;98987.59;;;12.34;47.81
42169;BME280;27838;43.858;25.974;2023-12-22T10:16:31;98984.13;;;12.33;47.83
42169;BME280;27838;43.858;25.974;2023-12-22T10:18:59;98986.63;;;12.36;48.29
42169;BME280;27838;43.858;25.974;2023-12-22T10:21:26;98984.16;;;12.57;48.01
42169;BME280;27838;43.858;25.974;2023-12-22T10:23:52;98978.25;;;12.75;47.87
42169;BME280;27838;43.858;25.974;2023-12-22T10:26:19;98975.25;;;12.86;47.17
42169;BME280;27838;43.858;25.974;2023-12-22T10:28:48;98977.59;;;12.94;47.35
42169;BME280;27838;43.858;25.974;2023-12-22T10:31:17;98961.78;;;12.97;46.74
42169;BME280;27838;43.858;25.974;2023-12-22T10:33:44;98984.84;;;12.85;46.87
42169;BME280;27838;43.858;25.974;2023-12-22T10:36:10;98990.06;;;12.85;47.38
42169;BME280;27838;43.858;25.974;2023-12-22T10:38:37;98979.41;;;12.92;47.24
42169;BME280;27838;43.858;25.974;2023-12-22T10:41:05;98982.66;;;12.98;47.07
42169;BME280;27838;43.858;25.974;2023-12-22T10:43:41;98978.66;;;12.88;46.90
42169;BME280;27838;43.858;25.974;2023-12-22T10:46:07;98976.09;;;12.87;46.87
42169;BME280;27838;43.858;25.974;2023-12-22T10:48:36;98975.91;;;12.91;46.96
42169;BME280;27838;43.858;25.974;2023-12-22T10:51:02;98970.25;;;13.03;47.42
42169;BME280;27838;43.858;25.974;2023-12-22T10:53:30;98964.66;;;13.13;47.05
42169;BME280;27838;43.858;25.974;2023-12-22T10:55:56;98946.81;;;13.00;47.50
42169;BME280;27838;43.858;25.974;2023-12-22T10:58:23;98944.88;;;13.06;47.39
42169;BME280;27838;43.858;25.974;2023-12-22T11:00:50;98940.13;;;12.93;47.92
42169;BME280;27838;43.858;25.974;2023-12-22T11:03:18;98941.53;;;12.78;48.28
42169;BME280;27838;43.858;25.974;2023-12-22T11:05:48;98943.72;;;12.67;48.78
42169;BME280;27838;43.858;25.974;2023-12-22T11:08:17;98934.47;;;12.58;49.21
42169;BME280;27838;43.858;25.974;2023-12-22T11:10:49;98938.88;;;12.56;49.73
42169;BME280;27838;43.858;25.974;2023-12-22T11:13:21;98931.31;;;12.49;50.11
42169;BME280;27838;43.858;25.974;2023-12-22T11:15:49;98941.41;;;12.34;50.98
42169;BME280;27838;43.858;25.974;2023-12-22T11:18:18;98950.16;;;12.33;51.22
42169;BME280;27838;43.858;25.974;2023-12-22T11:20:47;98949.22;;;12.36;51.44
42169;BME280;27838;43.858;25.974;2023-12-22T11:23:15;98950.00;;;12.38;51.70
42169;BME280;27838;43.858;25.974;2023-12-22T11:25:44;98949.91;;;12.41;51.81
42169;BME280;27838;43.858;25.974;2023-12-22T11:28:16;98954.00;;;12.48;51.93
42169;BME280;27838;43.858;25.974;2023-12-22T11:30:46;98947.16;;;12.44;51.99
42169;BME280;27838;43.858;25.974;2023-12-22T11:33:15;98958.88;;;12.34;52.55
42169;BME280;27838;43.858;25.974;2023-12-22T11:35:42;98959.06;;;12.27;52.87
42169;BME280;27838;43.858;25.974;2023-12-22T11:38:11;98958.47;;;12.19;53.60
42169;BME280;27838;43.858;25.974;2023-12-22T11:40:39;98951.50;;;12.20;53.37
42169;BME280;27838;43.858;25.974;2023-12-22T11:43:06;98955.81;;;12.21;53.76
42169;BME280;27838;43.858;25.974;2023-12-22T11:45:34;98949.00;;;12.17;53.81
42169;BME280;27838;43.858;25.974;2023-12-22T11:48:11;98955.28;;;12.11;53.79
42169;BME280;27838;43.858;25.974;2023-12-22T11:50:37;98938.78;;;12.09;53.99
42169;BME280;27838;43.858;25.974;2023-12-22T11:53:24;98950.38;;;12.02;53.77
42169;BME280;27838;43.858;25.974;2023-12-22T11:56:04;98946.41;;;11.90;54.29
42169;BME280;27838;43.858;25.974;2023-12-22T11:58:37;98943.84;;;11.88;54.17
42169;BME280;27838;43.858;25.974;2023-12-22T12:01:09;98943.94;;;11.85;54.79
42169;BME280;27838;43.858;25.974;2023-12-22T12:03:40;98938.91;;;11.79;54.75
42169;BME280;27838;43.858;25.974;2023-12-22T12:06:15;98945.94;;;11.77;54.80
42169;BME280;27838;43.858;25.974;2023-12-22T12:08:43;98947.00;;;11.71;55.18
42169;BME280;27838;43.858;25.974;2023-12-22T12:11:09;98957.53;;;11.68;55.31
42169;BME280;27838;43.858;25.974;2023-12-22T12:13:41;98957.53;;;11.68;55.25
42169;BME280;27838;43.858;25.974;2023-12-22T12:16:14;98951.38;;;11.71;55.21
42169;BME280;27838;43.858;25.974;2023-12-22T12:18:41;98962.53;;;11.76;55.23
42169;BME280;27838;43.858;25.974;2023-12-22T12:21:10;98968.44;;;11.81;55.05
42169;BME280;27838;43.858;25.974;2023-12-22T12:23:37;98971.63;;;11.89;55.01
42169;BME280;27838;43.858;25.974;2023-12-22T12:26:06;98969.19;;;11.85;54.88
42169;BME280;27838;43.858;25.974;2023-12-22T12:28:36;98959.69;;;11.82;54.79
42169;BME280;27838;43.858;25.974;2023-12-22T12:31:08;98959.00;;;11.77;55.05
42169;BME280;27838;43.858;25.974;2023-12-22T12:33:35;98967.69;;;11.78;55.10
42169;BME280;27838;43.858;25.974;2023-12-22T12:36:03;98965.88;;;11.80;54.99
42169;BME280;27838;43.858;25.974;2023-12-22T12:38:58;98962.03;;;11.92;54.63
42169;BME280;27838;43.858;25.974;2023-12-22T12:41:31;98977.78;;;11.88;54.69
42169;BME280;27838;43.858;25.974;2023-12-22T12:43:58;98980.28;;;11.92;54.80
42169;BME280;27838;43.858;25.974;2023-12-22T12:46:35;98976.78;;;11.93;54.87
42169;BME280;27838;43.858;25.974;2023-12-22T12:49:09;98966.84;;;12.04;54.84
42169;BME280;27838;43.858;25.974;2023-12-22T12:51:46;98968.97;;;11.93;54.65
42169;BME280;27838;43.858;25.974;2023-12-22T12:54:13;98979.22;;;11.99;55.07
42169;BME280;27838;43.858;25.974;2023-12-22T12:56:45;98984.13;;;12.08;54.73
42169;BME280;27838;43.858;25.974;2023-12-22T12:59:13;98990.03;;;12.13;54.93
42169;BME280;27838;43.858;25.974;2023-12-22T13:01:48;98979.50;;;12.16;54.77